createdAt,value
2023-03-12T00:02:00.387Z,90.15
2023-03-12T00:04:27.962Z,90.42
2023-03-12T00:06:54.517Z,89.90
2023-03-12T00:09:21.182Z,90.02
2023-03-12T00:11:47.752Z,90.10
2023-03-12T00:14:14.581Z,90.11
2023-03-12T00:16:41.261Z,89.96
2023-03-12T00:19:07.848Z,89.79
2023-03-12T00:21:34.405Z,90.03
2023-03-12T00:24:01.080Z,89.87
2023-03-12T00:26:27.929Z,89.48
2023-03-12T00:28:54.467Z,89.54
2023-03-12T00:31:27.579Z,89.76
2023-03-12T00:33:55.622Z,89.76
2023-03-12T00:36:24.915Z,89.58
2023-03-12T00:38:52.651Z,89.88
2023-03-12T00:41:20.508Z,89.69
2023-03-12T00:43:48.100Z,89.56
2023-03-12T00:46:14.717Z,89.55
2023-03-12T00:48:42.699Z,89.67
2023-03-12T00:51:09.388Z,89.78
2023-03-12T00:53:36.807Z,89.38
2023-03-12T00:56:05.161Z,89.97
2023-03-12T00:58:32.047Z,89.69
2023-03-12T01:00:58.738Z,89.92
2023-03-12T01:03:25.483Z,89.71
2023-03-12T01:05:55.252Z,89.83
2023-03-12T01:08:25.144Z,89.37
2023-03-12T01:10:52.166Z,89.43
2023-03-12T01:13:18.910Z,89.36
2023-03-12T01:15:45.648Z,89.20
2023-03-12T01:18:12.328Z,89.21
2023-03-12T01:20:40.381Z,88.33
2023-03-12T01:23:07.574Z,88.65
2023-03-12T01:25:34.820Z,87.46
2023-03-12T01:28:02.128Z,87.41
2023-03-12T01:30:29.961Z,87.37
2023-03-12T01:32:56.583Z,86.66
2023-03-12T01:35:23.231Z,86.59
2023-03-12T01:37:50.258Z,86.48
2023-03-12T01:40:19.728Z,86.61
2023-03-12T01:42:57.109Z,85.64
2023-03-12T01:46:01.469Z,85.91
2023-03-12T01:48:34.171Z,85.72
2023-03-12T01:51:02.619Z,85.95
2023-03-12T01:53:30.271Z,85.53
2023-03-12T01:55:59.425Z,85.49
2023-03-12T01:58:27.687Z,84.99
2023-03-12T02:00:55.143Z,85.76
2023-03-12T02:03:22.494Z,85.37
2023-03-12T02:05:55.087Z,85.50
2023-03-12T02:08:23.609Z,86.06
2023-03-12T02:10:50.591Z,85.88
2023-03-12T02:13:17.344Z,85.58
2023-03-12T02:15:43.955Z,85.20
2023-03-12T02:18:16.502Z,85.40
2023-03-12T02:21:04.177Z,84.23
2023-03-12T02:23:35.296Z,84.94
2023-03-12T02:26:04.188Z,85.04
2023-03-12T02:28:34.080Z,85.02
2023-03-12T02:31:03.633Z,85.28
2023-03-12T02:33:30.239Z,85.33
2023-03-12T02:35:56.926Z,85.42
2023-03-12T02:38:46.869Z,85.94
2023-03-12T02:41:18.734Z,86.05
2023-03-12T02:43:48.846Z,85.94
2023-03-12T02:46:15.837Z,85.96
2023-03-12T02:48:42.500Z,86.11
2023-03-12T02:51:09.450Z,86.10
2023-03-12T02:53:36.154Z,85.41
2023-03-12T02:56:02.756Z,85.29
2023-03-12T02:58:29.392Z,84.70
2023-03-12T03:00:55.961Z,84.40
2023-03-12T03:03:22.656Z,84.68
2023-03-12T03:05:49.425Z,84.84
2023-03-12T03:08:16.005Z,84.64
2023-03-12T03:10:42.654Z,84.47
2023-03-12T03:13:09.245Z,84.18
2023-03-12T03:15:35.829Z,84.31
2023-03-12T03:18:04.005Z,83.93
2023-03-12T03:20:31.862Z,84.28
2023-03-12T03:22:58.452Z,84.09
2023-03-12T03:25:25.534Z,84.43
2023-03-12T03:27:52.177Z,84.18
2023-03-12T03:30:19.328Z,84.53
2023-03-12T03:32:45.989Z,84.10
2023-03-12T03:35:12.730Z,84.25
2023-03-12T03:37:39.502Z,84.70
2023-03-12T03:40:07.021Z,84.95
2023-03-12T03:42:33.537Z,85.11
2023-03-12T03:45:00.096Z,85.60
2023-03-12T03:47:26.644Z,85.93
2023-03-12T03:49:53.197Z,85.60
2023-03-12T03:52:19.802Z,86.21
2023-03-12T03:54:46.373Z,86.20
2023-03-12T03:57:12.904Z,86.58
2023-03-12T03:59:39.426Z,86.77
2023-03-12T04:02:05.997Z,86.94
2023-03-12T04:04:32.614Z,87.07
2023-03-12T04:06:59.173Z,86.63
2023-03-12T04:09:26.028Z,86.55
2023-03-12T04:11:52.594Z,87.09
2023-03-12T04:14:19.242Z,86.83
2023-03-12T04:16:45.781Z,86.89
2023-03-12T04:19:12.385Z,87.52
2023-03-12T04:21:39.653Z,87.38
2023-03-12T04:24:07.812Z,87.40
2023-03-12T04:26:34.427Z,87.52
2023-03-12T04:29:01.157Z,86.61
2023-03-12T04:31:27.902Z,86.54
2023-03-12T04:33:54.475Z,86.00
2023-03-12T04:36:21.487Z,85.67
2023-03-12T04:38:48.048Z,86.26
2023-03-12T04:41:16.238Z,86.05
2023-03-12T04:43:43.342Z,85.93
2023-03-12T04:46:10.281Z,85.35
2023-03-12T04:48:37.098Z,85.45
2023-03-12T04:51:05.160Z,85.25
2023-03-12T04:53:32.212Z,84.61
2023-03-12T04:55:59.455Z,85.06
2023-03-12T04:58:26.023Z,84.97
2023-03-12T05:00:52.639Z,85.08
2023-03-12T05:03:19.327Z,84.69
2023-03-12T05:05:45.879Z,85.29
2023-03-12T05:08:12.522Z,85.11
2023-03-12T05:10:39.487Z,85.89
2023-03-12T05:13:17.078Z,85.76
2023-03-12T05:15:44.331Z,86.34
2023-03-12T05:18:10.901Z,86.81
2023-03-12T05:20:37.434Z,87.01
2023-03-12T05:23:04.046Z,86.39
2023-03-12T05:25:30.709Z,86.75
2023-03-12T05:27:57.398Z,86.78
2023-03-12T05:30:23.987Z,86.87
2023-03-12T05:32:50.600Z,87.04
2023-03-12T05:35:17.348Z,86.59
2023-03-12T05:37:44.066Z,86.39
2023-03-12T05:40:12.564Z,86.33
2023-03-12T05:42:39.253Z,85.61
2023-03-12T05:45:06.468Z,84.57
2023-03-12T05:47:33.007Z,83.57
2023-03-12T05:49:59.676Z,82.93
2023-03-12T05:52:26.275Z,82.69
2023-03-12T05:54:53.126Z,83.32
2023-03-12T05:57:19.748Z,83.97
2023-03-12T05:59:46.300Z,84.34
2023-03-12T06:02:12.970Z,84.83
2023-03-12T06:04:39.547Z,84.10
2023-03-12T06:07:06.139Z,83.47
2023-03-12T06:09:32.704Z,82.58
2023-03-12T06:11:59.283Z,81.22
2023-03-12T06:14:25.884Z,80.45
2023-03-12T06:16:52.492Z,80.13
2023-03-12T06:19:19.087Z,79.20
2023-03-12T06:21:45.696Z,78.91
2023-03-12T06:24:12.272Z,78.40
2023-03-12T06:26:39.035Z,78.21
2023-03-12T06:29:05.617Z,78.39
2023-03-12T06:31:32.232Z,77.97
2023-03-12T06:33:58.809Z,77.82
2023-03-12T06:36:25.604Z,78.23
2023-03-12T06:38:52.290Z,77.27
2023-03-12T06:41:20.995Z,77.73
2023-03-12T06:43:48.005Z,77.71
2023-03-12T06:46:17.801Z,78.27
2023-03-12T06:48:46.498Z,78.41
2023-03-12T06:51:15.082Z,79.20
2023-03-12T06:53:42.702Z,80.21
2023-03-12T06:56:09.916Z,80.47
2023-03-12T06:58:36.816Z,80.42
2023-03-12T07:01:04.019Z,81.01
2023-03-12T07:03:30.985Z,80.91
2023-03-12T07:05:58.437Z,81.06
2023-03-12T07:08:26.260Z,81.24
2023-03-12T07:10:53.091Z,81.07
2023-03-12T07:13:19.688Z,81.39
2023-03-12T07:15:46.640Z,81.16
2023-03-12T07:18:13.538Z,80.57
2023-03-12T07:20:42.646Z,81.09
2023-03-12T07:23:09.839Z,81.13
2023-03-12T07:25:41.592Z,80.83
2023-03-12T07:28:09.266Z,80.39
2023-03-12T07:30:36.196Z,80.13
2023-03-12T07:33:07.735Z,80.13
2023-03-12T07:35:34.907Z,79.73
2023-03-12T07:38:02.293Z,80.10
2023-03-12T07:40:29.394Z,79.34
2023-03-12T07:42:56.053Z,79.34
2023-03-12T07:45:23.994Z,78.74
2023-03-12T07:47:51.211Z,78.38
2023-03-12T07:50:19.326Z,78.78
2023-03-12T07:52:46.894Z,79.11
2023-03-12T07:55:13.945Z,78.54
2023-03-12T07:57:40.865Z,78.03
2023-03-12T08:00:10.406Z,77.96
2023-03-12T08:02:37.614Z,76.67
2023-03-12T08:05:04.681Z,76.01
2023-03-12T08:07:32.496Z,76.86
2023-03-12T08:10:00.063Z,76.16
2023-03-12T08:12:27.788Z,74.68
2023-03-12T08:14:54.753Z,74.54
2023-03-12T08:17:22.072Z,75.05
2023-03-12T08:19:48.836Z,73.38
2023-03-12T08:22:15.422Z,72.93
2023-03-12T08:24:42.068Z,72.94
2023-03-12T08:27:09.268Z,72.73
2023-03-12T08:29:35.785Z,72.28
2023-03-12T08:32:05.304Z,72.31
2023-03-12T08:34:33.983Z,72.14
2023-03-12T08:37:01.446Z,71.29
2023-03-12T08:39:28.472Z,70.13
2023-03-12T08:41:55.670Z,71.22
2023-03-12T08:44:25.750Z,70.17
2023-03-12T08:46:52.875Z,69.82
2023-03-12T08:49:20.691Z,70.26
2023-03-12T08:51:47.741Z,69.61
2023-03-12T08:54:14.473Z,68.80
2023-03-12T08:56:43.255Z,69.55
2023-03-12T08:59:11.292Z,68.81
2023-03-12T09:01:38.078Z,68.38
2023-03-12T09:04:05.976Z,69.40
2023-03-12T09:06:35.347Z,67.68
2023-03-12T09:09:05.837Z,68.34
2023-03-12T09:11:34.079Z,68.80
2023-03-12T09:14:46.276Z,66.83
2023-03-12T09:16:48.722Z,67.12
2023-03-12T09:19:15.841Z,65.35
2023-03-12T09:21:42.836Z,64.65
2023-03-12T09:24:11.295Z,65.53
2023-03-12T09:26:37.874Z,64.90
2023-03-12T09:29:04.433Z,63.32
2023-03-12T09:31:31.618Z,62.63
2023-03-12T09:33:58.229Z,61.85
2023-03-12T09:36:24.793Z,62.09
2023-03-12T09:38:51.518Z,62.46
2023-03-12T09:41:21.146Z,62.10
2023-03-12T09:44:05.772Z,62.71
2023-03-12T09:46:41.421Z,60.72
2023-03-12T09:49:19.702Z,62.50
2023-03-12T09:51:54.038Z,61.88
2023-03-12T09:54:42.627Z,61.78
2023-03-12T09:57:15.300Z,60.27
2023-03-12T09:59:41.980Z,60.56
2023-03-12T10:02:44.266Z,61.35
2023-03-12T10:05:26.471Z,60.18
2023-03-12T10:08:23.118Z,61.55
2023-03-12T10:10:50.611Z,61.38
2023-03-12T10:13:23.280Z,61.24
2023-03-12T10:16:08.497Z,62.54
2023-03-12T10:18:48.415Z,58.90
2023-03-12T10:21:37.763Z,60.08
2023-03-12T10:24:27.981Z,59.08
2023-03-12T10:26:58.288Z,58.61
2023-03-12T10:29:37.674Z,56.73
2023-03-12T10:32:30.127Z,59.15
2023-03-12T10:35:00.324Z,58.62
2023-03-12T10:37:35.790Z,57.72
2023-03-12T10:40:04.731Z,58.44
2023-03-12T10:42:31.823Z,58.25
2023-03-12T10:45:18.391Z,56.87
2023-03-12T10:47:52.105Z,58.14
2023-03-12T10:50:27.424Z,56.41
2023-03-12T10:53:14.199Z,55.72
2023-03-12T10:55:40.815Z,56.74
2023-03-12T10:58:07.696Z,57.43
2023-03-12T11:00:34.409Z,58.29
2023-03-12T11:03:06.652Z,57.19
2023-03-12T11:05:49.051Z,57.32
2023-03-12T11:08:24.701Z,56.35
2023-03-12T11:10:51.400Z,55.62
2023-03-12T11:13:28.800Z,55.20
2023-03-12T11:16:16.790Z,56.36
2023-03-12T11:19:01.514Z,54.44
2023-03-12T11:21:30.620Z,56.42
2023-03-12T11:23:57.258Z,56.44
2023-03-12T11:26:30.295Z,54.42
2023-03-12T11:29:02.852Z,54.95
2023-03-12T11:31:34.109Z,55.86
2023-03-12T11:34:08.033Z,55.89
2023-03-12T11:36:43.886Z,56.19
2023-03-12T11:39:36.657Z,54.55
2023-03-12T11:42:25.437Z,55.54
2023-03-12T11:45:19.281Z,54.68
2023-03-12T11:48:04.305Z,56.29
2023-03-12T11:50:59.089Z,56.87
2023-03-12T11:54:02.729Z,56.33
2023-03-12T11:56:33.934Z,57.57
2023-03-12T11:59:09.545Z,56.82
2023-03-12T12:01:51.131Z,57.10
2023-03-12T12:04:45.434Z,56.61
2023-03-12T12:07:33.889Z,57.19
2023-03-12T12:10:15.559Z,58.23
2023-03-12T12:13:03.935Z,58.40
2023-03-12T12:15:57.225Z,57.46
2023-03-12T12:18:30.050Z,56.58
2023-03-12T12:20:56.715Z,56.26
2023-03-12T12:23:44.252Z,57.62
2023-03-12T12:26:14.169Z,57.77
2023-03-12T12:28:55.198Z,56.37
2023-03-12T12:31:30.486Z,56.77
2023-03-12T12:34:21.493Z,55.57
2023-03-12T12:37:04.117Z,56.39
2023-03-12T12:39:40.304Z,55.60
2023-03-12T12:42:11.705Z,55.16
2023-03-12T12:44:49.604Z,53.95
2023-03-12T12:47:22.832Z,55.02
2023-03-12T12:49:54.397Z,54.79
2023-03-12T12:52:22.151Z,55.35
2023-03-12T12:54:51.370Z,52.65
2023-03-12T12:57:24.851Z,53.47
2023-03-12T12:59:54.416Z,52.44
2023-03-12T13:02:26.438Z,51.82
2023-03-12T13:04:58.378Z,51.76
2023-03-12T13:07:27.749Z,52.15
2023-03-12T13:09:57.363Z,52.82
2023-03-12T13:12:35.474Z,52.23
2023-03-12T13:15:48.369Z,52.60
2023-03-12T13:18:20.029Z,53.83
2023-03-12T13:20:57.963Z,53.41
2023-03-12T13:23:30.645Z,53.79
2023-03-12T13:26:08.662Z,52.18
2023-03-12T13:29:11.812Z,52.00
2023-03-12T13:31:49.084Z,50.09
2023-03-12T13:34:15.748Z,51.93
2023-03-12T13:36:45.391Z,51.23
2023-03-12T13:39:35.069Z,51.14
2023-03-12T13:42:25.025Z,49.90
2023-03-12T13:44:53.403Z,50.13
2023-03-12T13:47:28.835Z,50.02
2023-03-12T13:50:24.898Z,49.85
2023-03-12T13:53:15.547Z,51.94
2023-03-12T13:55:45.000Z,52.35
2023-03-12T13:58:23.220Z,52.95
2023-03-12T14:01:01.176Z,52.97
2023-03-12T14:03:40.270Z,49.95
2023-03-12T14:06:14.212Z,50.13
2023-03-12T14:08:43.631Z,52.03
2023-03-12T14:11:28.628Z,50.13
2023-03-12T14:14:32.925Z,50.21
2023-03-12T14:17:05.716Z,51.08
2023-03-12T14:19:34.876Z,52.25
2023-03-12T14:22:05.551Z,52.93
2023-03-12T14:24:35.526Z,51.94
2023-03-12T14:27:06.464Z,50.95
2023-03-12T14:29:41.250Z,50.72
2023-03-12T14:32:17.273Z,52.07
2023-03-12T14:35:03.674Z,53.33
2023-03-12T14:37:40.330Z,53.40
2023-03-12T14:40:22.246Z,52.72
2023-03-12T14:42:49.080Z,52.54
2023-03-12T14:45:20.704Z,53.05
2023-03-12T14:47:52.780Z,53.69
2023-03-12T14:50:20.668Z,54.45
2023-03-12T14:52:49.715Z,52.80
2023-03-12T14:55:22.621Z,53.97
2023-03-12T14:57:50.421Z,54.13
2023-03-12T15:00:24.436Z,53.58
2023-03-12T15:02:53.846Z,54.91
2023-03-12T15:05:21.559Z,54.50
2023-03-12T15:07:50.084Z,54.14
2023-03-12T15:10:25.786Z,55.90
2023-03-12T15:12:55.836Z,55.62
2023-03-12T15:15:42.052Z,55.83
2023-03-12T15:18:13.981Z,56.97
2023-03-12T15:20:40.830Z,56.91
2023-03-12T15:23:12.184Z,56.72
2023-03-12T15:25:39.727Z,57.49
2023-03-12T15:28:15.048Z,57.35
2023-03-12T15:30:42.821Z,57.83
2023-03-12T15:33:24.648Z,57.03
2023-03-12T15:36:27.728Z,57.93
2023-03-12T15:39:01.148Z,59.14
2023-03-12T15:41:49.616Z,58.55
2023-03-12T15:44:22.668Z,59.75
2023-03-12T15:46:53.845Z,59.95
2023-03-12T15:49:31.212Z,59.76
2023-03-12T15:52:05.306Z,60.56
2023-03-12T15:54:32.459Z,60.60
2023-03-12T15:57:19.951Z,60.48
2023-03-12T16:00:06.655Z,60.97
2023-03-12T16:02:48.171Z,60.65
2023-03-12T16:05:14.963Z,61.42
2023-03-12T16:07:41.556Z,61.81
2023-03-12T16:10:14.015Z,61.77
2023-03-12T16:12:41.900Z,62.32
2023-03-12T16:15:14.607Z,62.58
2023-03-12T16:17:41.408Z,62.60
2023-03-12T16:20:11.889Z,63.16
2023-03-12T16:22:38.416Z,62.72
2023-03-12T16:25:05.484Z,63.20
2023-03-12T16:27:34.331Z,63.59
2023-03-12T16:30:01.496Z,62.63
2023-03-12T16:32:28.265Z,63.29
2023-03-12T16:34:54.827Z,62.96
2023-03-12T16:37:21.338Z,63.30
2023-03-12T16:39:48.679Z,63.90
2023-03-12T16:42:18.229Z,64.88
2023-03-12T16:44:46.524Z,64.63
2023-03-12T16:47:14.227Z,64.81
2023-03-12T16:49:41.004Z,64.20
2023-03-12T16:52:22.761Z,64.03
2023-03-12T16:54:50.190Z,64.62
2023-03-12T16:57:24.613Z,64.56
2023-03-12T16:59:51.349Z,64.07
2023-03-12T17:02:19.134Z,64.99
2023-03-12T17:04:45.827Z,64.70
2023-03-12T17:07:12.475Z,65.44
2023-03-12T17:09:39.268Z,65.37
2023-03-12T17:12:10.932Z,65.44
2023-03-12T17:14:37.603Z,65.96
2023-03-12T17:17:04.215Z,66.50
2023-03-12T17:19:30.866Z,66.61
2023-03-12T17:24:32.686Z,67.03
2023-03-12T17:26:59.349Z,67.51
2023-03-12T17:29:26.056Z,67.45
2023-03-12T17:31:52.904Z,67.80
2023-03-12T17:34:19.504Z,67.42
2023-03-12T17:36:46.116Z,67.88
2023-03-12T17:39:12.841Z,67.49
2023-03-12T17:41:39.389Z,68.09
2023-03-12T17:44:07.252Z,68.57
2023-03-12T17:46:34.311Z,68.37
2023-03-12T17:49:01.059Z,68.19
2023-03-12T17:51:27.728Z,68.63
2023-03-12T17:53:54.891Z,68.70
2023-03-12T17:56:21.650Z,68.75
2023-03-12T17:58:48.268Z,68.46
2023-03-12T18:01:15.727Z,68.98
2023-03-12T18:03:44.261Z,68.76
2023-03-12T18:06:11.901Z,69.69
2023-03-12T18:08:38.725Z,69.91
2023-03-12T18:11:05.617Z,70.20
2023-03-12T18:13:32.363Z,69.55
2023-03-12T18:15:59.096Z,69.91
2023-03-12T18:18:26.928Z,69.99
2023-03-12T18:20:54.045Z,69.59
2023-03-12T18:23:20.837Z,68.40
2023-03-12T18:25:47.517Z,68.72
2023-03-12T18:28:15.295Z,68.32
2023-03-12T18:30:41.976Z,68.44
2023-03-12T18:33:08.569Z,68.36
2023-03-12T18:35:37.946Z,67.79
2023-03-12T18:38:04.587Z,67.96
2023-03-12T18:40:33.104Z,68.52
2023-03-12T18:43:00.363Z,68.01
2023-03-12T18:45:27.964Z,68.07
2023-03-12T18:47:54.676Z,68.46
2023-03-12T18:50:21.657Z,68.52
2023-03-12T18:52:48.330Z,68.49
2023-03-12T18:55:17.734Z,68.25
2023-03-12T18:57:45.404Z,67.81
2023-03-12T19:00:14.651Z,67.88
2023-03-12T19:02:42.383Z,67.32
2023-03-12T19:05:11.107Z,67.81
2023-03-12T19:07:39.163Z,68.16
2023-03-12T19:10:07.755Z,68.42
2023-03-12T19:12:45.440Z,68.86
2023-03-12T19:15:17.532Z,68.01
2023-03-12T19:17:44.068Z,68.72
2023-03-12T19:20:11.609Z,68.59
2023-03-12T19:22:38.424Z,68.80
2023-03-12T19:25:05.459Z,68.53
2023-03-12T19:27:32.040Z,68.07
2023-03-12T19:29:58.938Z,68.63
2023-03-12T19:32:33.251Z,68.85
2023-03-12T19:35:08.721Z,68.71
2023-03-12T19:37:35.442Z,68.92
2023-03-12T19:40:02.018Z,69.03
2023-03-12T19:42:28.717Z,69.01
2023-03-12T19:44:55.382Z,69.17
2023-03-12T19:47:22.463Z,69.16
2023-03-12T19:49:49.061Z,68.95
2023-03-12T19:52:16.014Z,69.39
2023-03-12T19:54:47.049Z,68.89
2023-03-12T19:57:21.376Z,69.23
2023-03-12T19:59:48.001Z,69.34
2023-03-12T20:02:15.291Z,68.96
2023-03-12T20:04:41.915Z,68.43
2023-03-12T20:07:09.153Z,68.38
2023-03-12T20:09:35.980Z,67.56
2023-03-12T20:12:02.578Z,68.29
2023-03-12T20:14:29.408Z,68.00
2023-03-12T20:16:56.274Z,67.79
2023-03-12T20:19:22.989Z,67.01
2023-03-12T20:21:50.450Z,66.68
2023-03-12T20:24:17.698Z,67.13
2023-03-12T20:26:45.421Z,67.13
2023-03-12T20:29:12.093Z,67.56
2023-03-12T20:31:39.651Z,67.43
2023-03-12T20:34:06.470Z,67.92
2023-03-12T20:36:33.106Z,67.95
2023-03-12T20:38:59.705Z,68.02
2023-03-12T20:41:29.336Z,68.51
2023-03-12T20:44:01.195Z,68.44
2023-03-12T20:46:28.291Z,69.35
2023-03-12T20:48:56.773Z,69.17
2023-03-12T20:51:24.859Z,69.43
2023-03-12T20:53:51.514Z,69.54
2023-03-12T20:56:18.283Z,69.78
2023-03-12T20:58:44.818Z,70.78
2023-03-12T21:01:11.477Z,70.95
2023-03-12T21:03:38.060Z,71.19
2023-03-12T21:06:04.920Z,72.50
2023-03-12T21:08:32.893Z,71.64
2023-03-12T21:10:59.559Z,73.10
2023-03-12T21:13:26.680Z,73.97
2023-03-12T21:15:53.458Z,73.87
2023-03-12T21:18:20.267Z,73.62
2023-03-12T21:20:47.081Z,75.13
2023-03-12T21:23:13.819Z,75.29
2023-03-12T21:25:41.232Z,75.41
2023-03-12T21:28:09.911Z,75.78
2023-03-12T21:30:37.461Z,76.28
2023-03-12T21:33:04.634Z,75.88
2023-03-12T21:35:31.414Z,76.27
2023-03-12T21:37:58.973Z,76.82
2023-03-12T21:40:25.797Z,77.59
2023-03-12T21:42:52.526Z,77.59
2023-03-12T21:45:19.484Z,77.78
2023-03-12T21:47:46.064Z,77.82
2023-03-12T21:50:12.664Z,78.48
2023-03-12T21:52:41.497Z,78.78
2023-03-12T21:55:10.429Z,78.53
2023-03-12T21:57:37.080Z,79.88
2023-03-12T22:00:04.984Z,79.35
2023-03-12T22:02:32.073Z,79.99
2023-03-12T22:05:00.266Z,80.20
2023-03-12T22:07:30.155Z,79.83
2023-03-12T22:09:57.318Z,80.64
2023-03-12T22:12:24.006Z,80.96
2023-03-12T22:14:50.849Z,80.79
2023-03-12T22:17:17.559Z,81.28
2023-03-12T22:19:44.450Z,81.37
2023-03-12T22:22:11.576Z,81.24
2023-03-12T22:24:38.210Z,82.25
2023-03-12T22:27:07.407Z,81.47
2023-03-12T22:29:34.523Z,81.59
2023-03-12T22:32:01.241Z,81.56
2023-03-12T22:34:29.535Z,81.84
2023-03-12T22:36:56.348Z,81.63
2023-03-12T22:39:22.977Z,82.03
2023-03-12T22:41:53.698Z,82.27
2023-03-12T22:44:20.487Z,82.45
2023-03-12T22:46:47.094Z,82.75
2023-03-12T22:49:17.357Z,82.67
2023-03-12T22:51:44.155Z,82.67
2023-03-12T22:54:10.869Z,83.43
2023-03-12T22:56:37.470Z,83.64
2023-03-12T22:59:04.217Z,84.31
2023-03-12T23:01:30.855Z,83.82
2023-03-12T23:03:57.768Z,85.11
2023-03-12T23:06:26.797Z,84.47
2023-03-12T23:08:56.068Z,85.01
2023-03-12T23:11:25.370Z,85.36
2023-03-12T23:13:52.704Z,85.82
2023-03-12T23:16:22.610Z,86.39
2023-03-12T23:18:49.403Z,86.61
2023-03-12T23:21:21.160Z,86.22
2023-03-12T23:23:49.034Z,86.61
2023-03-12T23:26:20.923Z,86.67
2023-03-12T23:28:47.864Z,86.70
2023-03-12T23:31:15.830Z,86.47
2023-03-12T23:33:42.854Z,86.28
2023-03-12T23:36:16.232Z,86.86
2023-03-12T23:38:44.024Z,86.59
2023-03-12T23:41:14.286Z,86.84
2023-03-12T23:43:41.061Z,87.08
2023-03-12T23:46:08.927Z,86.88
2023-03-12T23:48:37.940Z,87.56
2023-03-12T23:51:05.782Z,88.73
2023-03-12T23:53:33.226Z,88.20
2023-03-12T23:56:01.368Z,87.87
2023-03-12T23:58:28.581Z,87.28
